Time;durP1;ratioP1;P1;durP2;ratioP2;P2;SDS_P1;SDS_P2;PMS_P1;PMS_P2;Temp;Humidity;BMP_temperature;BMP_pressure;BME280_temperature;BME280_humidity;BME280_pressure;Samples;Min_cycle;Max_cycle;Signal;HPM_P1;HPM_P2
2021/07/28 00:01:26;;;;;;;11.93;10.60;;;;;;;;;;4969745;28;20081;-81
2021/07/28 00:03:52;;;;;;;11.55;10.35;;;;;;;;;;4973006;28;20109;-81
2021/07/28 00:06:19;;;;;;;12.52;10.30;;;;;;;;;;4981929;28;20589;-81
2021/07/28 00:08:45;;;;;;;11.73;9.45;;;;;;;;;;4969724;28;20069;-81
2021/07/28 00:11:12;;;;;;;11.10;9.27;;;;;;;;;;4986327;28;20154;-81
2021/07/28 00:13:38;;;;;;;10.10;8.95;;;;;;;;;;4960037;28;20054;-81
2021/07/28 00:16:11;;;;;;;13.20;9.80;;;;;;;;;;4949673;28;20128;-81
2021/07/28 00:18:46;;;;;;;11.68;9.40;;;;;;;;;;4972632;28;20085;-81
2021/07/28 00:23:58;;;;;;;12.40;10.40;;;;;;;;;;4977045;28;20050;-82
2021/07/28 00:26:24;;;;;;;12.10;10.65;;;;;;;;;;4972503;28;20133;-81
2021/07/28 00:28:50;;;;;;;11.32;9.90;;;;;;;;;;4950921;28;20527;-81
2021/07/28 00:31:17;;;;;;;10.80;9.43;;;;;;;;;;4971961;28;20511;-81
2021/07/28 00:33:43;;;;;;;12.85;10.32;;;;;;;;;;4981810;28;20062;-81
2021/07/28 00:36:09;;;;;;;11.38;10.13;;;;;;;;;;4981254;28;20039;-81
2021/07/28 00:38:35;;;;;;;14.18;10.88;;;;;;;;;;4971351;28;20046;-80
2021/07/28 00:41:02;;;;;;;13.25;11.48;;;;;;;;;;4949376;28;20051;-81
2021/07/28 00:43:29;;;;;;;12.82;11.35;;;;;;;;;;4967876;28;20126;-81
2021/07/28 00:45:55;;;;;;;15.07;13.18;;;;;;;;;;4954933;28;20059;-81
2021/07/28 00:48:22;;;;;;;18.17;14.25;;;;;;;;;;4955156;28;20058;-81
2021/07/28 00:50:48;;;;;;;14.70;13.20;;;;;;;;;;4961110;28;20496;-81
2021/07/28 00:53:18;;;;;;;18.77;14.55;;;;;;;;;;4968863;28;20154;-80
2021/07/28 00:55:45;;;;;;;18.38;16.15;;;;;;;;;;4954128;28;20053;-81
2021/07/28 00:58:12;;;;;;;17.60;15.45;;;;;;;;;;4967935;28;20129;-80
2021/07/28 01:00:38;;;;;;;16.73;14.50;;;;;;;;;;4982111;28;20062;-81
2021/07/28 01:03:04;;;;;;;17.98;15.88;;;;;;;;;;4975144;28;20054;-81
2021/07/28 01:05:31;;;;;;;17.70;15.68;;;;;;;;;;4965323;28;20043;-81
2021/07/28 01:07:57;;;;;;;19.77;16.40;;;;;;;;;;4984772;28;20050;-79
2021/07/28 01:10:23;;;;;;;18.80;15.52;;;;;;;;;;4985537;28;20054;-82
2021/07/28 01:12:54;;;;;;;19.08;16.35;;;;;;;;;;4981176;28;20492;-80
2021/07/28 01:15:42;;;;;;;19.10;15.18;;;;;;;;;;4970938;28;20074;-81
2021/07/28 01:18:09;;;;;;;18.77;15.48;;;;;;;;;;4973525;28;20457;-80
2021/07/28 01:20:36;;;;;;;17.88;15.98;;;;;;;;;;4985441;28;20050;-82
2021/07/28 01:23:04;;;;;;;18.13;16.10;;;;;;;;;;4972851;28;20055;-81
2021/07/28 01:25:33;;;;;;;20.67;17.27;;;;;;;;;;4980473;28;20138;-80
2021/07/28 01:28:01;;;;;;;19.88;17.05;;;;;;;;;;4957640;28;20049;-83
2021/07/28 01:30:27;;;;;;;18.92;16.85;;;;;;;;;;4956798;28;20054;-79
2021/07/28 01:32:54;;;;;;;20.50;17.05;;;;;;;;;;4982831;28;20058;-79
2021/07/28 01:35:21;;;;;;;20.90;17.17;;;;;;;;;;4976733;28;20054;-80
2021/07/28 01:37:47;;;;;;;21.38;17.73;;;;;;;;;;4973847;28;20038;-80
2021/07/28 01:40:14;;;;;;;23.88;18.80;;;;;;;;;;4951853;28;20053;-80
2021/07/28 01:42:44;;;;;;;21.70;17.33;;;;;;;;;;4974370;28;20054;-80
2021/07/28 01:45:11;;;;;;;22.77;19.10;;;;;;;;;;4982246;28;20062;-80
2021/07/28 01:47:37;;;;;;;25.58;18.30;;;;;;;;;;4979877;28;20497;-80
2021/07/28 01:50:07;;;;;;;23.27;18.92;;;;;;;;;;4971144;28;20491;-81
2021/07/28 01:52:34;;;;;;;22.75;19.35;;;;;;;;;;4954905;28;20046;-80
2021/07/28 01:55:01;;;;;;;22.42;18.67;;;;;;;;;;4955939;28;20440;-80
2021/07/28 01:57:27;;;;;;;26.17;19.20;;;;;;;;;;4959778;28;20133;-80
2021/07/28 01:59:53;;;;;;;23.90;19.02;;;;;;;;;;4977108;28;20070;-80
2021/07/28 02:02:20;;;;;;;26.38;19.52;;;;;;;;;;4940185;28;21449;-80
2021/07/28 02:04:46;;;;;;;23.77;20.15;;;;;;;;;;4982366;28;20066;-81
2021/07/28 02:07:12;;;;;;;24.42;21.10;;;;;;;;;;4974969;28;20145;-80
2021/07/28 02:09:39;;;;;;;22.98;19.30;;;;;;;;;;4953445;28;20578;-81
2021/07/28 02:12:05;;;;;;;25.42;20.60;;;;;;;;;;4951503;28;20051;-82
2021/07/28 02:14:31;;;;;;;25.40;19.63;;;;;;;;;;4967201;28;20043;-80
2021/07/28 02:16:57;;;;;;;24.27;20.13;;;;;;;;;;4977566;28;20132;-81
2021/07/28 02:19:24;;;;;;;26.70;21.15;;;;;;;;;;4973959;28;20073;-81
2021/07/28 02:21:50;;;;;;;25.77;21.50;;;;;;;;;;4983937;28;21221;-81
2021/07/28 02:24:16;;;;;;;27.48;22.15;;;;;;;;;;4954274;28;20047;-81
2021/07/28 02:26:42;;;;;;;27.35;22.80;;;;;;;;;;4973525;28;20126;-81
2021/07/28 02:29:09;;;;;;;28.35;21.98;;;;;;;;;;4971947;28;20057;-81
2021/07/28 02:31:35;;;;;;;28.02;22.10;;;;;;;;;;4968157;28;20552;-81
2021/07/28 02:34:02;;;;;;;30.45;23.80;;;;;;;;;;4954350;28;20683;-81
2021/07/28 02:36:28;;;;;;;32.10;23.77;;;;;;;;;;4956757;28;20051;-81
2021/07/28 02:38:54;;;;;;;30.05;24.23;;;;;;;;;;4975192;28;20046;-83
2021/07/28 02:41:20;;;;;;;34.97;25.25;;;;;;;;;;4981799;28;20765;-81
2021/07/28 02:43:47;;;;;;;33.08;23.35;;;;;;;;;;4970244;28;20049;-81
2021/07/28 02:46:13;;;;;;;31.27;24.17;;;;;;;;;;4979903;28;20073;-81
2021/07/28 02:48:39;;;;;;;33.30;24.25;;;;;;;;;;4953699;28;20142;-82
2021/07/28 02:51:06;;;;;;;32.35;23.77;;;;;;;;;;4970363;28;20062;-81
2021/07/28 02:53:32;;;;;;;30.48;23.40;;;;;;;;;;4973311;28;20046;-81
2021/07/28 02:55:58;;;;;;;30.17;23.75;;;;;;;;;;4974736;28;20074;-84
2021/07/28 02:58:24;;;;;;;31.25;23.65;;;;;;;;;;4951189;28;20047;-82
2021/07/28 03:00:54;;;;;;;33.40;25.60;;;;;;;;;;4931707;28;1145002;-81
2021/07/28 03:03:20;;;;;;;32.53;25.15;;;;;;;;;;4982657;28;20065;-81
2021/07/28 03:05:46;;;;;;;33.70;25.73;;;;;;;;;;4973377;28;20105;-81
2021/07/28 03:08:12;;;;;;;32.33;24.38;;;;;;;;;;4970918;28;20121;-81
2021/07/28 03:10:38;;;;;;;30.88;23.27;;;;;;;;;;4983742;28;20061;-82
2021/07/28 03:13:05;;;;;;;29.42;22.92;;;;;;;;;;4962083;28;20133;-84
2021/07/28 03:15:31;;;;;;;28.85;23.27;;;;;;;;;;4977118;28;20082;-83
2021/07/28 03:17:57;;;;;;;30.02;23.83;;;;;;;;;;4979529;28;20149;-82
2021/07/28 03:20:24;;;;;;;30.20;21.85;;;;;;;;;;4967846;28;20768;-83
2021/07/28 03:22:50;;;;;;;27.38;21.70;;;;;;;;;;4981464;28;20042;-83
2021/07/28 03:25:16;;;;;;;29.50;21.42;;;;;;;;;;4979994;28;20691;-81
2021/07/28 03:27:42;;;;;;;35.63;24.02;;;;;;;;;;4974633;28;20046;-80
2021/07/28 03:30:08;;;;;;;31.15;21.70;;;;;;;;;;4978225;28;20058;-83
2021/07/28 03:32:35;;;;;;;30.50;22.42;;;;;;;;;;4968005;28;20117;-82
2021/07/28 03:35:02;;;;;;;32.28;22.98;;;;;;;;;;4968437;28;20512;-81
2021/07/28 03:37:28;;;;;;;29.88;22.30;;;;;;;;;;4960999;28;20061;-83
2021/07/28 03:40:00;;;;;;;32.50;22.92;;;;;;;;;;4979438;28;20085;-82
2021/07/28 03:42:35;;;;;;;28.80;22.02;;;;;;;;;;4954214;28;20116;-83
2021/07/28 03:45:01;;;;;;;28.92;21.92;;;;;;;;;;4981762;28;20053;-83
2021/07/28 03:47:32;;;;;;;31.27;22.10;;;;;;;;;;4978956;28;20082;-81
2021/07/28 03:49:58;;;;;;;30.65;22.58;;;;;;;;;;4957706;28;20043;-82
2021/07/28 03:52:24;;;;;;;29.15;21.70;;;;;;;;;;4972517;28;20117;-82
2021/07/28 03:54:51;;;;;;;31.77;23.02;;;;;;;;;;4980942;28;20078;-82
2021/07/28 03:57:17;;;;;;;29.88;22.60;;;;;;;;;;4972082;28;20053;-82
2021/07/28 03:59:43;;;;;;;29.25;22.25;;;;;;;;;;4981999;28;20054;-82
2021/07/28 04:02:12;;;;;;;30.70;22.38;;;;;;;;;;4973074;28;20059;-83
2021/07/28 04:04:38;;;;;;;29.60;22.30;;;;;;;;;;4975200;28;20050;-82
2021/07/28 04:07:05;;;;;;;30.15;21.95;;;;;;;;;;4972742;28;20053;-83
2021/07/28 04:09:31;;;;;;;33.47;23.25;;;;;;;;;;4981120;28;20166;-81
2021/07/28 04:11:58;;;;;;;31.08;22.33;;;;;;;;;;4968104;28;20105;-82
2021/07/28 04:14:24;;;;;;;30.98;22.70;;;;;;;;;;4977956;28;20634;-82
2021/07/28 04:16:50;;;;;;;31.80;22.40;;;;;;;;;;4972757;28;20495;-83
2021/07/28 04:19:16;;;;;;;30.13;22.20;;;;;;;;;;4969315;28;20488;-83
2021/07/28 04:21:42;;;;;;;31.08;22.65;;;;;;;;;;4976916;28;20065;-83
2021/07/28 04:24:09;;;;;;;29.40;21.90;;;;;;;;;;4954712;28;20133;-82
2021/07/28 04:26:37;;;;;;;27.60;21.60;;;;;;;;;;4962336;28;20073;-82
2021/07/28 04:29:05;;;;;;;32.72;22.58;;;;;;;;;;4966467;28;20051;-84
2021/07/28 04:31:31;;;;;;;34.58;22.85;;;;;;;;;;4975565;28;20097;-83
2021/07/28 04:33:57;;;;;;;38.30;24.58;;;;;;;;;;4960569;28;20536;-82
2021/07/28 04:36:24;;;;;;;31.95;22.52;;;;;;;;;;4979807;28;20048;-83
2021/07/28 04:38:50;;;;;;;32.15;22.50;;;;;;;;;;4958859;28;21045;-83
2021/07/28 04:41:17;;;;;;;31.45;22.45;;;;;;;;;;4980907;28;20516;-83
2021/07/28 04:43:43;;;;;;;31.30;22.13;;;;;;;;;;4954003;28;20059;-85
2021/07/28 04:46:09;;;;;;;28.88;22.05;;;;;;;;;;4948694;28;20058;-83
2021/07/28 04:48:35;;;;;;;30.30;21.92;;;;;;;;;;4979119;28;20046;-84
2021/07/28 04:51:02;;;;;;;31.55;22.65;;;;;;;;;;4982412;28;20582;-83
2021/07/28 04:53:29;;;;;;;31.17;23.05;;;;;;;;;;4979634;28;20712;-83
2021/07/28 04:55:55;;;;;;;31.50;22.85;;;;;;;;;;4957476;28;20070;-85
2021/07/28 04:58:22;;;;;;;32.05;23.33;;;;;;;;;;4969129;28;20086;-84
2021/07/28 05:00:48;;;;;;;31.25;22.90;;;;;;;;;;4967511;28;20409;-83
2021/07/28 05:03:15;;;;;;;31.77;23.05;;;;;;;;;;4937727;29;20714;-84
2021/07/28 05:05:41;;;;;;;35.15;23.52;;;;;;;;;;4934271;28;20055;-84
2021/07/28 05:08:08;;;;;;;29.20;21.67;;;;;;;;;;4931204;28;20056;-85
2021/07/28 05:10:35;;;;;;;30.70;22.73;;;;;;;;;;4933515;29;20070;-84
2021/07/28 05:13:01;;;;;;;29.55;21.88;;;;;;;;;;4942753;28;20138;-83
2021/07/28 05:15:27;;;;;;;34.88;23.92;;;;;;;;;;4935820;28;20051;-84
2021/07/28 05:17:54;;;;;;;28.15;21.98;;;;;;;;;;4937588;28;20054;-84
2021/07/28 05:20:20;;;;;;;28.55;22.08;;;;;;;;;;4927672;29;20605;-82
2021/07/28 05:22:46;;;;;;;31.52;22.50;;;;;;;;;;4937037;28;20051;-82
2021/07/28 05:25:13;;;;;;;29.00;21.33;;;;;;;;;;4933489;28;20059;-82
2021/07/28 05:27:39;;;;;;;29.17;21.60;;;;;;;;;;4943796;28;20175;-82
2021/07/28 05:30:06;;;;;;;29.35;22.10;;;;;;;;;;4928550;29;20048;-83
2021/07/28 05:32:32;;;;;;;26.38;20.95;;;;;;;;;;4930925;28;20052;-81
2021/07/28 05:34:59;;;;;;;26.55;21.13;;;;;;;;;;4930839;29;20047;-82
2021/07/28 05:37:28;;;;;;;28.08;21.58;;;;;;;;;;4935364;28;20139;-82
2021/07/28 05:39:55;;;;;;;28.98;21.50;;;;;;;;;;4942775;28;20051;-82
2021/07/28 05:42:21;;;;;;;29.35;22.15;;;;;;;;;;4940505;28;20110;-82
2021/07/28 05:44:47;;;;;;;30.25;22.55;;;;;;;;;;4937595;28;20051;-82
2021/07/28 05:47:13;;;;;;;29.13;23.20;;;;;;;;;;4934762;29;20134;-82
2021/07/28 05:49:40;;;;;;;30.08;22.65;;;;;;;;;;4938487;28;20134;-82
2021/07/28 05:52:06;;;;;;;28.90;23.10;;;;;;;;;;4939367;28;20129;-83
2021/07/28 05:54:32;;;;;;;32.05;25.40;;;;;;;;;;4935088;29;20494;-81
2021/07/28 05:56:58;;;;;;;31.65;23.80;;;;;;;;;;4935669;29;20051;-82
2021/07/28 05:59:25;;;;;;;28.48;23.80;;;;;;;;;;4944579;28;20050;-82
2021/07/28 06:01:51;;;;;;;31.35;25.10;;;;;;;;;;4959763;28;20515;-82
2021/07/28 06:04:19;;;;;;;30.48;25.45;;;;;;;;;;4971199;28;20051;-82
2021/07/28 06:06:45;;;;;;;31.90;26.00;;;;;;;;;;4978191;28;20168;-81
2021/07/28 06:09:12;;;;;;;29.77;24.90;;;;;;;;;;4969648;28;20121;-83
2021/07/28 06:11:38;;;;;;;26.90;22.50;;;;;;;;;;4955865;28;20385;-82
2021/07/28 06:14:05;;;;;;;28.23;23.17;;;;;;;;;;4977223;28;20055;-82
2021/07/28 06:16:31;;;;;;;29.23;23.83;;;;;;;;;;4976828;28;20042;-81
2021/07/28 06:18:57;;;;;;;26.75;23.85;;;;;;;;;;4972211;28;20444;-81
2021/07/28 06:21:23;;;;;;;27.25;22.55;;;;;;;;;;4951986;28;20043;-81
2021/07/28 06:23:50;;;;;;;29.58;24.17;;;;;;;;;;4953619;28;20051;-81
2021/07/28 06:26:16;;;;;;;28.98;22.65;;;;;;;;;;4979433;28;20054;-81
2021/07/28 06:28:42;;;;;;;25.42;22.00;;;;;;;;;;4983042;28;20054;-82
2021/07/28 06:31:08;;;;;;;26.60;23.10;;;;;;;;;;4974030;28;20183;-83
2021/07/28 06:33:34;;;;;;;24.40;21.80;;;;;;;;;;4982483;28;20058;-81
2021/07/28 06:36:00;;;;;;;26.65;22.02;;;;;;;;;;4961823;28;20484;-82
2021/07/28 06:38:27;;;;;;;24.25;20.92;;;;;;;;;;4983395;28;20108;-81
2021/07/28 06:40:53;;;;;;;28.50;22.08;;;;;;;;;;4964717;28;20062;-82
2021/07/28 06:43:19;;;;;;;26.08;21.55;;;;;;;;;;4974613;28;20047;-81
2021/07/28 06:45:46;;;;;;;27.40;22.30;;;;;;;;;;4969837;28;20082;-81
2021/07/28 06:48:12;;;;;;;26.67;21.45;;;;;;;;;;4970492;28;20070;-82
2021/07/28 06:50:38;;;;;;;23.98;18.92;;;;;;;;;;4954385;28;20046;-82
2021/07/28 06:53:04;;;;;;;25.25;20.52;;;;;;;;;;4973575;28;20579;-82
2021/07/28 06:55:31;;;;;;;21.95;19.02;;;;;;;;;;4973282;28;20150;-81
2021/07/28 06:57:57;;;;;;;23.50;19.48;;;;;;;;;;4968919;28;20049;-80
2021/07/28 07:00:23;;;;;;;22.10;19.70;;;;;;;;;;4966376;28;20055;-80
2021/07/28 07:02:49;;;;;;;23.70;19.20;;;;;;;;;;4970397;28;20061;-83
2021/07/28 07:05:15;;;;;;;23.33;19.27;;;;;;;;;;4971148;28;20417;-80
2021/07/28 07:07:42;;;;;;;22.05;19.52;;;;;;;;;;4969658;28;20065;-79
2021/07/28 07:10:08;;;;;;;21.25;18.48;;;;;;;;;;4972017;28;20051;-83
2021/07/28 07:12:36;;;;;;;21.80;18.48;;;;;;;;;;4952492;28;20098;-83
2021/07/28 07:15:02;;;;;;;20.90;18.20;;;;;;;;;;4963679;28;20047;-81
2021/07/28 07:17:29;;;;;;;21.05;18.83;;;;;;;;;;4983481;28;20129;-82
2021/07/28 07:19:56;;;;;;;23.13;18.58;;;;;;;;;;4982747;28;20046;-81
2021/07/28 07:22:22;;;;;;;19.15;17.08;;;;;;;;;;4969658;28;20136;-82
2021/07/28 07:24:48;;;;;;;19.38;17.33;;;;;;;;;;4978964;28;20133;-82
2021/07/28 07:27:14;;;;;;;21.55;18.13;;;;;;;;;;4958425;28;20058;-81
2021/07/28 07:29:40;;;;;;;22.58;18.67;;;;;;;;;;4983732;28;20073;-82
2021/07/28 07:32:06;;;;;;;22.85;17.60;;;;;;;;;;4977901;28;20480;-82
2021/07/28 07:34:33;;;;;;;19.75;17.60;;;;;;;;;;4969236;28;20134;-83
2021/07/28 07:36:59;;;;;;;19.95;16.08;;;;;;;;;;4965157;28;20050;-83
2021/07/28 07:39:26;;;;;;;17.83;15.63;;;;;;;;;;4971762;28;20047;-82
2021/07/28 07:41:52;;;;;;;17.33;15.50;;;;;;;;;;4982583;28;20054;-83
2021/07/28 07:44:18;;;;;;;18.80;15.80;;;;;;;;;;4959355;28;20125;-82
2021/07/28 07:46:44;;;;;;;18.58;15.43;;;;;;;;;;4980752;28;20078;-82
2021/07/28 07:49:10;;;;;;;16.95;14.85;;;;;;;;;;4958784;28;20097;-83
2021/07/28 07:51:36;;;;;;;19.02;15.20;;;;;;;;;;4979474;28;20043;-82
2021/07/28 07:54:03;;;;;;;17.13;15.30;;;;;;;;;;4974035;28;20055;-81
2021/07/28 07:56:29;;;;;;;17.38;15.13;;;;;;;;;;4979301;28;20138;-82
2021/07/28 07:58:55;;;;;;;22.52;18.13;;;;;;;;;;4974165;28;20057;-82
2021/07/28 08:01:21;;;;;;;19.42;16.13;;;;;;;;;;4966322;28;20062;-83
2021/07/28 08:03:47;;;;;;;18.58;15.15;;;;;;;;;;4972891;28;20081;-82
2021/07/28 08:06:13;;;;;;;17.15;15.18;;;;;;;;;;4982248;28;20881;-81
2021/07/28 08:08:40;;;;;;;18.45;16.23;;;;;;;;;;4980726;28;20057;-82
2021/07/28 08:11:07;;;;;;;19.33;16.88;;;;;;;;;;4958029;28;20108;-82
2021/07/28 08:13:33;;;;;;;18.20;15.82;;;;;;;;;;4974779;28;20051;-81
2021/07/28 08:16:00;;;;;;;16.98;15.18;;;;;;;;;;4968787;28;20066;-82
2021/07/28 08:18:26;;;;;;;16.15;14.43;;;;;;;;;;4967830;28;20404;-82
2021/07/28 08:20:52;;;;;;;16.23;14.38;;;;;;;;;;4950359;28;20487;-83
2021/07/28 08:23:18;;;;;;;16.25;13.70;;;;;;;;;;4973194;28;20451;-82
2021/07/28 08:25:44;;;;;;;14.82;13.18;;;;;;;;;;4973404;28;20073;-82
2021/07/28 08:28:13;;;;;;;14.52;13.02;;;;;;;;;;4976109;28;20504;-84
2021/07/28 08:30:40;;;;;;;14.35;12.60;;;;;;;;;;4979195;28;20049;-82
2021/07/28 08:33:06;;;;;;;17.27;13.57;;;;;;;;;;4962744;28;20481;-82
2021/07/28 08:35:33;;;;;;;13.95;12.45;;;;;;;;;;4980434;28;20073;-82
2021/07/28 08:37:59;;;;;;;14.48;12.93;;;;;;;;;;4982290;28;20058;-82
2021/07/28 08:40:26;;;;;;;13.65;11.93;;;;;;;;;;4966177;28;20062;-82
2021/07/28 08:42:55;;;;;;;12.60;11.30;;;;;;;;;;4977645;28;20050;-82
2021/07/28 08:45:21;;;;;;;13.77;11.40;;;;;;;;;;4951320;28;22546;-83
2021/07/28 08:47:47;;;;;;;11.63;10.43;;;;;;;;;;4974760;28;20060;-82
2021/07/28 08:50:14;;;;;;;12.77;11.18;;;;;;;;;;4967261;28;20046;-83
2021/07/28 08:52:40;;;;;;;12.57;10.45;;;;;;;;;;4980273;28;20504;-83
2021/07/28 08:55:07;;;;;;;11.98;10.77;;;;;;;;;;4950109;28;20460;-82
2021/07/28 08:57:34;;;;;;;11.35;10.15;;;;;;;;;;4966724;28;20075;-82
2021/07/28 09:00:01;;;;;;;10.60;9.50;;;;;;;;;;4981285;28;20058;-82
2021/07/28 09:02:27;;;;;;;11.13;8.90;;;;;;;;;;4960526;28;20140;-82
2021/07/28 09:04:54;;;;;;;9.77;8.77;;;;;;;;;;4977604;28;20489;-82
2021/07/28 09:07:21;;;;;;;9.20;8.15;;;;;;;;;;4958459;28;20075;-81
2021/07/28 09:09:54;;;;;;;11.45;8.00;;;;;;;;;;4955249;28;20050;-82
2021/07/28 09:12:21;;;;;;;9.43;7.75;;;;;;;;;;4980289;28;20046;-82
2021/07/28 09:14:52;;;;;;;8.77;7.88;;;;;;;;;;4979406;28;20142;-82
2021/07/28 09:17:22;;;;;;;9.10;7.65;;;;;;;;;;4984511;28;20057;-82
2021/07/28 09:19:49;;;;;;;11.20;7.80;;;;;;;;;;4971156;28;20059;-82
2021/07/28 09:22:18;;;;;;;9.70;7.97;;;;;;;;;;4979364;28;20205;-83
2021/07/28 09:24:47;;;;;;;10.70;8.32;;;;;;;;;;4956145;28;20043;-82
2021/07/28 09:27:32;;;;;;;10.35;8.70;;;;;;;;;;4982655;28;20059;-83
2021/07/28 09:29:58;;;;;;;9.35;7.78;;;;;;;;;;4974476;28;20403;-82
2021/07/28 09:32:24;;;;;;;11.02;8.10;;;;;;;;;;4989275;28;20535;-82
2021/07/28 09:34:54;;;;;;;7.93;6.45;;;;;;;;;;4962148;28;20058;-82
2021/07/28 09:37:20;;;;;;;9.55;6.55;;;;;;;;;;4978813;28;20058;-82
2021/07/28 09:39:48;;;;;;;9.52;7.68;;;;;;;;;;4979505;28;20584;-82
2021/07/28 09:42:16;;;;;;;8.73;7.07;;;;;;;;;;4962959;28;20042;-83
2021/07/28 09:44:43;;;;;;;7.78;6.72;;;;;;;;;;4985265;28;20066;-82
2021/07/28 09:47:12;;;;;;;7.60;6.60;;;;;;;;;;4963269;28;20065;-81
2021/07/28 09:49:39;;;;;;;8.65;6.65;;;;;;;;;;4960616;28;20055;-81
2021/07/28 09:52:19;;;;;;;7.35;6.45;;;;;;;;;;4989492;28;20053;-82
2021/07/28 09:54:46;;;;;;;8.98;7.22;;;;;;;;;;4973393;28;20057;-82
2021/07/28 09:57:19;;;;;;;8.38;6.75;;;;;;;;;;4958243;28;20065;-83
2021/07/28 09:59:49;;;;;;;8.65;6.78;;;;;;;;;;4960563;28;20049;-82
2021/07/28 10:02:15;;;;;;;7.60;6.80;;;;;;;;;;4968883;28;20054;-83
2021/07/28 10:04:47;;;;;;;7.63;6.63;;;;;;;;;;4970434;28;20043;-82
2021/07/28 10:07:15;;;;;;;10.48;7.32;;;;;;;;;;4966565;28;20058;-83
2021/07/28 10:09:45;;;;;;;10.77;7.38;;;;;;;;;;4980935;28;20059;-81
2021/07/28 10:12:12;;;;;;;9.23;7.95;;;;;;;;;;4969515;28;20043;-81
2021/07/28 10:14:42;;;;;;;10.30;8.90;;;;;;;;;;4963288;28;20146;-83
2021/07/28 10:17:09;;;;;;;10.60;9.60;;;;;;;;;;4984531;28;20518;-81
2021/07/28 10:19:35;;;;;;;10.77;9.55;;;;;;;;;;4982980;28;20079;-82
2021/07/28 10:22:04;;;;;;;12.10;10.50;;;;;;;;;;4978754;28;20537;-81
2021/07/28 10:24:31;;;;;;;11.65;10.38;;;;;;;;;;4980960;28;20125;-82
2021/07/28 10:27:00;;;;;;;12.90;9.85;;;;;;;;;;4969822;28;20046;-81
2021/07/28 10:29:26;;;;;;;12.43;10.07;;;;;;;;;;4974694;28;20042;-82
2021/07/28 10:31:53;;;;;;;13.50;10.00;;;;;;;;;;4984977;28;20070;-81
2021/07/28 10:34:29;;;;;;;12.15;10.35;;;;;;;;;;4958094;28;20059;-82
2021/07/28 10:36:57;;;;;;;10.57;9.55;;;;;;;;;;4988907;28;20096;-82
2021/07/28 10:39:43;;;;;;;12.20;9.65;;;;;;;;;;4980343;28;20058;-81
2021/07/28 10:42:13;;;;;;;9.70;7.38;;;;;;;;;;4964191;28;20113;-81
2021/07/28 10:45:00;;;;;;;12.73;10.63;;;;;;;;;;4975625;28;20050;-81
2021/07/28 10:47:46;;;;;;;11.95;10.70;;;;;;;;;;4984286;28;20046;-81
2021/07/28 10:50:24;;;;;;;11.52;10.43;;;;;;;;;;4960948;28;20058;-81
2021/07/28 10:52:51;;;;;;;11.50;10.40;;;;;;;;;;4982490;28;20050;-83
2021/07/28 10:55:31;;;;;;;11.27;10.07;;;;;;;;;;4971017;28;20051;-83
2021/07/28 10:58:07;;;;;;;11.63;9.70;;;;;;;;;;4956797;28;20074;-81
2021/07/28 11:00:38;;;;;;;11.80;10.05;;;;;;;;;;4969414;28;20070;-81
2021/07/28 11:03:04;;;;;;;10.07;9.07;;;;;;;;;;4986007;28;20109;-81
2021/07/28 11:05:31;;;;;;;10.23;8.55;;;;;;;;;;4988314;28;20046;-81
2021/07/28 11:08:04;;;;;;;10.88;8.80;;;;;;;;;;4988536;28;20058;-82
2021/07/28 11:10:35;;;;;;;9.50;8.15;;;;;;;;;;4978531;28;20078;-82
2021/07/28 11:13:08;;;;;;;10.77;7.40;;;;;;;;;;4968020;28;20105;-83
2021/07/28 11:15:35;;;;;;;9.68;8.20;;;;;;;;;;4967618;28;20078;-81
2021/07/28 11:18:01;;;;;;;8.35;7.45;;;;;;;;;;4979556;28;20046;-81
2021/07/28 11:20:35;;;;;;;10.63;7.32;;;;;;;;;;4970057;28;20051;-82
2021/07/28 11:23:20;;;;;;;9.50;6.15;;;;;;;;;;4988185;28;20137;-81
2021/07/28 11:25:46;;;;;;;9.88;6.90;;;;;;;;;;4974845;28;20488;-82
2021/07/28 11:28:12;;;;;;;10.05;5.90;;;;;;;;;;4985285;28;20058;-81
2021/07/28 11:30:38;;;;;;;9.82;7.72;;;;;;;;;;4967700;28;20074;-81
2021/07/28 11:33:14;;;;;;;12.50;8.73;;;;;;;;;;4962046;28;20051;-81
2021/07/28 11:35:43;;;;;;;12.50;9.38;;;;;;;;;;4987211;28;20051;-81
2021/07/28 11:38:14;;;;;;;13.00;9.25;;;;;;;;;;4986797;28;20042;-81
2021/07/28 11:40:46;;;;;;;8.13;7.32;;;;;;;;;;4987097;28;20543;-82
2021/07/28 11:43:31;;;;;;;7.22;6.45;;;;;;;;;;4985938;28;20072;-81
2021/07/28 11:46:12;;;;;;;7.65;5.50;;;;;;;;;;4969916;28;20058;-82
2021/07/28 11:48:41;;;;;;;7.05;6.18;;;;;;;;;;4965976;28;20082;-81
2021/07/28 11:51:11;;;;;;;9.63;7.28;;;;;;;;;;4951253;28;20146;-83
2021/07/28 11:53:38;;;;;;;9.50;8.50;;;;;;;;;;4972284;28;20290;-81
2021/07/28 11:56:07;;;;;;;10.57;8.73;;;;;;;;;;4968114;28;20051;-82
2021/07/28 11:58:34;;;;;;;10.88;9.82;;;;;;;;;;4973799;28;20062;-81
2021/07/28 12:01:16;;;;;;;14.05;10.70;;;;;;;;;;4959648;28;20064;-81
2021/07/28 12:03:49;;;;;;;12.82;10.52;;;;;;;;;;4954018;28;20092;-81
2021/07/28 12:06:15;;;;;;;11.50;10.32;;;;;;;;;;4967794;28;20051;-83
2021/07/28 12:08:42;;;;;;;13.10;10.95;;;;;;;;;;4981391;28;20050;-81
2021/07/28 12:11:09;;;;;;;14.55;13.05;;;;;;;;;;4966306;28;20492;-82
2021/07/28 12:13:41;;;;;;;12.65;11.35;;;;;;;;;;4982147;28;20050;-81
2021/07/28 12:16:07;;;;;;;17.48;13.55;;;;;;;;;;4982587;28;20050;-81
2021/07/28 12:18:42;;;;;;;14.50;11.88;;;;;;;;;;4986325;28;20046;-81
2021/07/28 12:21:09;;;;;;;15.25;13.15;;;;;;;;;;4965174;28;20126;-81
2021/07/28 12:23:35;;;;;;;15.52;12.77;;;;;;;;;;4979998;28;20054;-82
2021/07/28 12:26:01;;;;;;;13.40;11.88;;;;;;;;;;4958895;28;20055;-82
2021/07/28 12:28:46;;;;;;;15.23;12.27;;;;;;;;;;4984272;28;20054;-83
2021/07/28 12:31:25;;;;;;;14.43;12.65;;;;;;;;;;4961482;28;20053;-83
2021/07/28 12:33:52;;;;;;;14.38;12.50;;;;;;;;;;4973578;28;20065;-83
2021/07/28 12:36:30;;;;;;;14.00;11.90;;;;;;;;;;4968989;28;20192;-85
2021/07/28 12:38:56;;;;;;;14.65;13.05;;;;;;;;;;4983277;28;20063;-83
2021/07/28 12:41:23;;;;;;;13.38;11.93;;;;;;;;;;4949493;28;20059;-82
2021/07/28 12:43:51;;;;;;;15.10;13.55;;;;;;;;;;4977269;28;20528;-81
2021/07/28 12:46:17;;;;;;;16.45;12.93;;;;;;;;;;4950647;28;20051;-85
2021/07/28 12:48:44;;;;;;;14.13;12.68;;;;;;;;;;4967051;28;20101;-83
2021/07/28 12:51:11;;;;;;;15.70;12.85;;;;;;;;;;4960411;28;20114;-81
2021/07/28 12:53:37;;;;;;;13.98;12.10;;;;;;;;;;4966210;28;20292;-82
2021/07/28 12:56:03;;;;;;;15.63;13.93;;;;;;;;;;4965679;28;20077;-81
2021/07/28 12:58:31;;;;;;;15.48;13.68;;;;;;;;;;4986323;28;20050;-81
2021/07/28 13:00:59;;;;;;;15.85;12.93;;;;;;;;;;4973234;28;20105;-82
2021/07/28 13:03:27;;;;;;;14.93;12.35;;;;;;;;;;4978095;28;20054;-82
2021/07/28 13:06:11;;;;;;;14.05;11.43;;;;;;;;;;4983438;28;20124;-82
2021/07/28 13:08:38;;;;;;;11.25;8.93;;;;;;;;;;4962414;28;20124;-82
2021/07/28 13:11:04;;;;;;;12.27;10.00;;;;;;;;;;4972275;28;20058;-82
2021/07/28 13:13:31;;;;;;;11.00;9.02;;;;;;;;;;4981826;28;20082;-82
2021/07/28 13:15:59;;;;;;;12.75;8.20;;;;;;;;;;4953342;28;20123;-83
2021/07/28 13:18:25;;;;;;;16.25;9.38;;;;;;;;;;4980485;28;20050;-82
2021/07/28 13:20:51;;;;;;;12.35;9.50;;;;;;;;;;4985283;28;20054;-83
2021/07/28 13:23:18;;;;;;;14.60;9.93;;;;;;;;;;4965813;28;20077;-82
2021/07/28 13:25:47;;;;;;;12.65;10.98;;;;;;;;;;4960439;28;20086;-82
2021/07/28 13:28:15;;;;;;;7.90;5.70;;;;;;;;;;4957928;28;20097;-82
2021/07/28 13:30:41;;;;;;;5.45;4.47;;;;;;;;;;4978512;28;20192;-83
2021/07/28 13:33:08;;;;;;;4.47;3.38;;;;;;;;;;4979244;28;20058;-83
2021/07/28 13:35:35;;;;;;;6.28;4.13;;;;;;;;;;4979069;28;20493;-82
2021/07/28 13:38:02;;;;;;;6.50;3.60;;;;;;;;;;4979259;28;20057;-82
2021/07/28 13:40:28;;;;;;;7.18;5.15;;;;;;;;;;4987436;28;20132;-83
2021/07/28 13:42:54;;;;;;;7.95;5.80;;;;;;;;;;4986297;28;20046;-83
2021/07/28 13:45:21;;;;;;;6.97;5.13;;;;;;;;;;4978834;28;20051;-83
2021/07/28 13:47:48;;;;;;;9.02;6.55;;;;;;;;;;4986871;28;20046;-82
2021/07/28 13:50:16;;;;;;;8.35;7.47;;;;;;;;;;4989494;28;20056;-83
2021/07/28 13:52:42;;;;;;;7.55;6.53;;;;;;;;;;4980226;28;20059;-83
2021/07/28 13:55:09;;;;;;;9.50;7.65;;;;;;;;;;4969690;28;20051;-83
2021/07/28 13:57:35;;;;;;;9.27;7.60;;;;;;;;;;4978389;28;20062;-83
2021/07/28 14:00:01;;;;;;;9.48;7.53;;;;;;;;;;4979647;28;20055;-83
2021/07/28 14:02:28;;;;;;;11.35;9.13;;;;;;;;;;4975761;28;20057;-83
2021/07/28 14:04:58;;;;;;;11.02;9.18;;;;;;;;;;4968517;28;20077;-82
2021/07/28 14:07:24;;;;;;;9.07;8.10;;;;;;;;;;4980584;28;20061;-83
2021/07/28 14:09:52;;;;;;;9.60;8.60;;;;;;;;;;4958151;28;20456;-83
2021/07/28 14:12:18;;;;;;;9.32;6.50;;;;;;;;;;4969523;28;20058;-82
2021/07/28 14:14:44;;;;;;;10.15;5.82;;;;;;;;;;4954190;28;20166;-82
2021/07/28 14:17:10;;;;;;;10.32;8.15;;;;;;;;;;4989103;28;20043;-82
2021/07/28 14:19:37;;;;;;;8.50;6.03;;;;;;;;;;4985632;28;20046;-83
2021/07/28 14:22:04;;;;;;;7.63;5.65;;;;;;;;;;4982140;28;20600;-81
2021/07/28 14:24:30;;;;;;;7.72;6.10;;;;;;;;;;4958012;28;20054;-82
2021/07/28 14:26:57;;;;;;;7.90;6.63;;;;;;;;;;4974678;28;20077;-82
2021/07/28 14:29:23;;;;;;;9.82;6.18;;;;;;;;;;4976698;28;20492;-84